sensor_id;sensor_type;location;lat;lon;timestamp;P1;durP1;ratioP1;P2;durP2;ratioP2
46689;SDS011;32423;45.398;10.874;2023-12-14T00:02:10;24.27;;;10.15;;
46689;SDS011;32423;45.398;10.874;2023-12-14T00:05:02;14.32;;;9.18;;
46689;SDS011;32423;45.398;10.874;2023-12-14T00:08:02;14.77;;;9.00;;
46689;SDS011;32423;45.398;10.874;2023-12-14T00:10:56;16.87;;;9.30;;
46689;SDS011;32423;45.398;10.874;2023-12-14T00:13:54;22.90;;;11.55;;
46689;SDS011;32423;45.398;10.874;2023-12-14T00:16:46;18.42;;;10.48;;
46689;SDS011;32423;45.398;10.874;2023-12-14T00:19:38;15.93;;;9.88;;
46689;SDS011;32423;45.398;10.874;2023-12-14T00:22:30;14.03;;;9.20;;
46689;SDS011;32423;45.398;10.874;2023-12-14T00:25:25;14.07;;;9.40;;
46689;SDS011;32423;45.398;10.874;2023-12-14T00:28:17;15.52;;;10.45;;
46689;SDS011;32423;45.398;10.874;2023-12-14T00:31:12;14.70;;;9.67;;
46689;SDS011;32423;45.398;10.874;2023-12-14T00:34:06;14.15;;;8.55;;
46689;SDS011;32423;45.398;10.874;2023-12-14T00:36:58;11.43;;;7.23;;
46689;SDS011;32423;45.398;10.874;2023-12-14T00:39:50;14.38;;;9.40;;
46689;SDS011;32423;45.398;10.874;2023-12-14T00:42:44;11.57;;;7.28;;
46689;SDS011;32423;45.398;10.874;2023-12-14T00:45:34;10.13;;;7.95;;
46689;SDS011;32423;45.398;10.874;2023-12-14T00:48:26;11.70;;;8.07;;
46689;SDS011;32423;45.398;10.874;2023-12-14T00:51:18;8.48;;;6.30;;
46689;SDS011;32423;45.398;10.874;2023-12-14T00:54:12;11.30;;;8.93;;
46689;SDS011;32423;45.398;10.874;2023-12-14T00:57:09;14.35;;;8.68;;
46689;SDS011;32423;45.398;10.874;2023-12-14T01:00:04;12.48;;;9.35;;
46689;SDS011;32423;45.398;10.874;2023-12-14T01:05:52;12.70;;;8.80;;
46689;SDS011;32423;45.398;10.874;2023-12-14T01:08:44;13.10;;;7.70;;
46689;SDS011;32423;45.398;10.874;2023-12-14T01:11:36;15.32;;;9.07;;
46689;SDS011;32423;45.398;10.874;2023-12-14T01:14:28;13.75;;;9.95;;
46689;SDS011;32423;45.398;10.874;2023-12-14T01:17:20;13.85;;;9.18;;
46689;SDS011;32423;45.398;10.874;2023-12-14T01:20:12;19.00;;;10.65;;
46689;SDS011;32423;45.398;10.874;2023-12-14T01:23:07;13.60;;;8.60;;
46689;SDS011;32423;45.398;10.874;2023-12-14T01:26:01;22.67;;;10.33;;
46689;SDS011;32423;45.398;10.874;2023-12-14T01:28:53;14.98;;;10.20;;
46689;SDS011;32423;45.398;10.874;2023-12-14T01:31:45;17.42;;;10.52;;
46689;SDS011;32423;45.398;10.874;2023-12-14T01:34:40;11.90;;;7.65;;
46689;SDS011;32423;45.398;10.874;2023-12-14T01:37:37;15.00;;;9.90;;
46689;SDS011;32423;45.398;10.874;2023-12-14T01:40:32;22.15;;;11.13;;
46689;SDS011;32423;45.398;10.874;2023-12-14T01:43:21;12.55;;;8.32;;
46689;SDS011;32423;45.398;10.874;2023-12-14T01:46:16;17.52;;;10.05;;
46689;SDS011;32423;45.398;10.874;2023-12-14T01:49:08;16.30;;;10.25;;
46689;SDS011;32423;45.398;10.874;2023-12-14T01:52:02;17.50;;;9.83;;
46689;SDS011;32423;45.398;10.874;2023-12-14T01:54:57;16.80;;;9.63;;
46689;SDS011;32423;45.398;10.874;2023-12-14T01:57:52;14.32;;;9.95;;
46689;SDS011;32423;45.398;10.874;2023-12-14T02:04:01;17.75;;;8.63;;
46689;SDS011;32423;45.398;10.874;2023-12-14T02:06:55;10.97;;;6.90;;
46689;SDS011;32423;45.398;10.874;2023-12-14T02:09:45;18.48;;;8.38;;
46689;SDS011;32423;45.398;10.874;2023-12-14T02:12:39;16.58;;;8.02;;
46689;SDS011;32423;45.398;10.874;2023-12-14T02:15:34;16.53;;;8.77;;
46689;SDS011;32423;45.398;10.874;2023-12-14T02:18:29;11.00;;;6.20;;
46689;SDS011;32423;45.398;10.874;2023-12-14T02:21:23;16.40;;;8.93;;
46689;SDS011;32423;45.398;10.874;2023-12-14T02:24:18;16.83;;;8.60;;
46689;SDS011;32423;45.398;10.874;2023-12-14T02:27:10;16.97;;;8.87;;
46689;SDS011;32423;45.398;10.874;2023-12-14T02:30:04;16.08;;;8.90;;
46689;SDS011;32423;45.398;10.874;2023-12-14T02:33:00;17.45;;;9.70;;
46689;SDS011;32423;45.398;10.874;2023-12-14T02:35:58;15.27;;;7.60;;
46689;SDS011;32423;45.398;10.874;2023-12-14T02:38:50;12.70;;;7.97;;
46689;SDS011;32423;45.398;10.874;2023-12-14T02:41:44;17.23;;;9.10;;
46689;SDS011;32423;45.398;10.874;2023-12-14T02:44:39;24.10;;;9.63;;
46689;SDS011;32423;45.398;10.874;2023-12-14T02:47:34;21.38;;;9.55;;
46689;SDS011;32423;45.398;10.874;2023-12-14T02:50:28;12.83;;;6.70;;
46689;SDS011;32423;45.398;10.874;2023-12-14T02:53:23;25.37;;;8.93;;
46689;SDS011;32423;45.398;10.874;2023-12-14T02:56:23;20.02;;;9.07;;
46689;SDS011;32423;45.398;10.874;2023-12-14T02:59:15;19.83;;;9.30;;
46689;SDS011;32423;45.398;10.874;2023-12-14T03:02:09;18.27;;;10.18;;
46689;SDS011;32423;45.398;10.874;2023-12-14T03:05:04;15.90;;;7.33;;
46689;SDS011;32423;45.398;10.874;2023-12-14T03:07:58;22.67;;;9.43;;
46689;SDS011;32423;45.398;10.874;2023-12-14T03:10:48;15.43;;;9.02;;
46689;SDS011;32423;45.398;10.874;2023-12-14T03:13:42;12.70;;;8.65;;
46689;SDS011;32423;45.398;10.874;2023-12-14T03:16:37;22.17;;;9.87;;
46689;SDS011;32423;45.398;10.874;2023-12-14T03:19:32;19.60;;;8.98;;
46689;SDS011;32423;45.398;10.874;2023-12-14T03:22:26;16.75;;;6.72;;
46689;SDS011;32423;45.398;10.874;2023-12-14T03:25:18;26.30;;;8.75;;
46689;SDS011;32423;45.398;10.874;2023-12-14T03:28:13;30.03;;;8.07;;
46689;SDS011;32423;45.398;10.874;2023-12-14T03:31:08;41.20;;;10.13;;
46689;SDS011;32423;45.398;10.874;2023-12-14T03:34:04;18.67;;;8.43;;
46689;SDS011;32423;45.398;10.874;2023-12-14T03:36:56;35.20;;;7.93;;
46689;SDS011;32423;45.398;10.874;2023-12-14T03:39:51;15.18;;;7.32;;
46689;SDS011;32423;45.398;10.874;2023-12-14T03:42:45;21.13;;;8.50;;
46689;SDS011;32423;45.398;10.874;2023-12-14T03:45:40;18.70;;;6.27;;
46689;SDS011;32423;45.398;10.874;2023-12-14T03:48:32;19.48;;;9.10;;
46689;SDS011;32423;45.398;10.874;2023-12-14T03:51:24;15.07;;;7.73;;
46689;SDS011;32423;45.398;10.874;2023-12-14T03:54:19;14.13;;;8.07;;
46689;SDS011;32423;45.398;10.874;2023-12-14T03:57:13;16.13;;;6.93;;
46689;SDS011;32423;45.398;10.874;2023-12-14T04:00:05;24.25;;;8.48;;
46689;SDS011;32423;45.398;10.874;2023-12-14T04:03:02;15.27;;;9.48;;
46689;SDS011;32423;45.398;10.874;2023-12-14T04:05:56;16.98;;;6.50;;
46689;SDS011;32423;45.398;10.874;2023-12-14T04:08:51;14.03;;;8.03;;
46689;SDS011;32423;45.398;10.874;2023-12-14T04:11:46;15.47;;;6.77;;
46689;SDS011;32423;45.398;10.874;2023-12-14T04:14:40;24.30;;;7.63;;
46689;SDS011;32423;45.398;10.874;2023-12-14T04:17:35;13.32;;;7.80;;
46689;SDS011;32423;45.398;10.874;2023-12-14T04:20:29;8.20;;;5.85;;
46689;SDS011;32423;45.398;10.874;2023-12-14T04:23:24;14.50;;;6.27;;
46689;SDS011;32423;45.398;10.874;2023-12-14T04:26:16;11.75;;;7.18;;
46689;SDS011;32423;45.398;10.874;2023-12-14T04:29:08;10.63;;;7.03;;
46689;SDS011;32423;45.398;10.874;2023-12-14T04:31:58;17.15;;;7.95;;
46689;SDS011;32423;45.398;10.874;2023-12-14T04:34:53;21.95;;;7.28;;
46689;SDS011;32423;45.398;10.874;2023-12-14T04:37:45;14.40;;;6.97;;
46689;SDS011;32423;45.398;10.874;2023-12-14T04:40:37;14.57;;;7.22;;
46689;SDS011;32423;45.398;10.874;2023-12-14T04:43:29;15.32;;;7.13;;
46689;SDS011;32423;45.398;10.874;2023-12-14T04:46:21;11.02;;;6.93;;
46689;SDS011;32423;45.398;10.874;2023-12-14T04:49:13;19.77;;;6.35;;
46689;SDS011;32423;45.398;10.874;2023-12-14T04:52:08;6.53;;;4.90;;
46689;SDS011;32423;45.398;10.874;2023-12-14T04:55:00;10.15;;;4.68;;
46689;SDS011;32423;45.398;10.874;2023-12-14T04:57:52;7.20;;;4.20;;
46689;SDS011;32423;45.398;10.874;2023-12-14T05:00:46;5.40;;;4.70;;
46689;SDS011;32423;45.398;10.874;2023-12-14T05:03:38;5.47;;;4.25;;
46689;SDS011;32423;45.398;10.874;2023-12-14T05:06:30;6.00;;;5.07;;
46689;SDS011;32423;45.398;10.874;2023-12-14T05:09:25;8.13;;;4.80;;
46689;SDS011;32423;45.398;10.874;2023-12-14T05:12:20;4.60;;;3.70;;
46689;SDS011;32423;45.398;10.874;2023-12-14T05:15:14;4.07;;;3.13;;
46689;SDS011;32423;45.398;10.874;2023-12-14T05:18:13;5.35;;;4.10;;
46689;SDS011;32423;45.398;10.874;2023-12-14T05:21:07;4.80;;;4.00;;
46689;SDS011;32423;45.398;10.874;2023-12-14T05:24:07;4.22;;;3.63;;
46689;SDS011;32423;45.398;10.874;2023-12-14T05:27:01;3.85;;;3.45;;
46689;SDS011;32423;45.398;10.874;2023-12-14T05:29:57;3.53;;;3.13;;
46689;SDS011;32423;45.398;10.874;2023-12-14T05:32:49;6.35;;;4.75;;
46689;SDS011;32423;45.398;10.874;2023-12-14T05:35:43;5.23;;;4.37;;
46689;SDS011;32423;45.398;10.874;2023-12-14T05:38:35;5.38;;;4.30;;
46689;SDS011;32423;45.398;10.874;2023-12-14T05:41:31;9.18;;;4.35;;
46689;SDS011;32423;45.398;10.874;2023-12-14T05:44:31;16.90;;;4.03;;
46689;SDS011;32423;45.398;10.874;2023-12-14T05:47:23;5.13;;;3.70;;
46689;SDS011;32423;45.398;10.874;2023-12-14T05:50:17;10.75;;;4.13;;
46689;SDS011;32423;45.398;10.874;2023-12-14T05:53:11;4.75;;;3.65;;
46689;SDS011;32423;45.398;10.874;2023-12-14T05:56:06;5.03;;;3.17;;
46689;SDS011;32423;45.398;10.874;2023-12-14T05:59:03;5.18;;;4.10;;
46689;SDS011;32423;45.398;10.874;2023-12-14T06:01:58;10.17;;;3.37;;
46689;SDS011;32423;45.398;10.874;2023-12-14T06:04:52;8.75;;;3.42;;
46689;SDS011;32423;45.398;10.874;2023-12-14T06:07:47;3.20;;;2.63;;
46689;SDS011;32423;45.398;10.874;2023-12-14T06:10:39;4.40;;;3.53;;
46689;SDS011;32423;45.398;10.874;2023-12-14T06:13:34;7.05;;;5.00;;
46689;SDS011;32423;45.398;10.874;2023-12-14T06:16:33;6.30;;;4.22;;
46689;SDS011;32423;45.398;10.874;2023-12-14T06:19:28;3.03;;;2.67;;
46689;SDS011;32423;45.398;10.874;2023-12-14T06:22:23;4.57;;;3.33;;
46689;SDS011;32423;45.398;10.874;2023-12-14T06:25:17;12.23;;;4.20;;
46689;SDS011;32423;45.398;10.874;2023-12-14T06:28:17;4.38;;;3.72;;
46689;SDS011;32423;45.398;10.874;2023-12-14T06:31:15;3.85;;;3.28;;
46689;SDS011;32423;45.398;10.874;2023-12-14T06:34:08;6.45;;;3.72;;
46689;SDS011;32423;45.398;10.874;2023-12-14T06:36:57;15.95;;;4.55;;
46689;SDS011;32423;45.398;10.874;2023-12-14T06:39:52;8.48;;;4.97;;
46689;SDS011;32423;45.398;10.874;2023-12-14T06:42:44;16.83;;;4.43;;
46689;SDS011;32423;45.398;10.874;2023-12-14T06:45:37;6.68;;;4.10;;
46689;SDS011;32423;45.398;10.874;2023-12-14T06:48:24;7.30;;;4.63;;
46689;SDS011;32423;45.398;10.874;2023-12-14T06:51:19;10.68;;;4.05;;
46689;SDS011;32423;45.398;10.874;2023-12-14T06:54:11;9.02;;;5.10;;
46689;SDS011;32423;45.398;10.874;2023-12-14T06:57:04;22.05;;;4.80;;
46689;SDS011;32423;45.398;10.874;2023-12-14T06:59:58;4.73;;;3.03;;
46689;SDS011;32423;45.398;10.874;2023-12-14T07:02:51;10.95;;;4.85;;
46689;SDS011;32423;45.398;10.874;2023-12-14T07:05:45;13.32;;;4.78;;
46689;SDS011;32423;45.398;10.874;2023-12-14T07:08:40;4.45;;;2.97;;
46689;SDS011;32423;45.398;10.874;2023-12-14T07:11:35;7.73;;;4.23;;
46689;SDS011;32423;45.398;10.874;2023-12-14T07:14:27;11.52;;;4.80;;
46689;SDS011;32423;45.398;10.874;2023-12-14T07:17:21;7.00;;;6.03;;
46689;SDS011;32423;45.398;10.874;2023-12-14T07:20:16;10.07;;;4.07;;
46689;SDS011;32423;45.398;10.874;2023-12-14T07:23:08;9.00;;;4.85;;
46689;SDS011;32423;45.398;10.874;2023-12-14T07:26:03;12.90;;;3.47;;
46689;SDS011;32423;45.398;10.874;2023-12-14T07:31:50;11.60;;;4.65;;
46689;SDS011;32423;45.398;10.874;2023-12-14T07:34:42;8.55;;;4.50;;
46689;SDS011;32423;45.398;10.874;2023-12-14T07:37:37;4.37;;;3.40;;
46689;SDS011;32423;45.398;10.874;2023-12-14T07:40:31;5.83;;;4.07;;
46689;SDS011;32423;45.398;10.874;2023-12-14T07:43:24;6.50;;;3.72;;
46689;SDS011;32423;45.398;10.874;2023-12-14T07:46:18;4.15;;;3.33;;
46689;SDS011;32423;45.398;10.874;2023-12-14T07:49:16;7.68;;;4.90;;
46689;SDS011;32423;45.398;10.874;2023-12-14T07:52:08;9.93;;;5.68;;
46689;SDS011;32423;45.398;10.874;2023-12-14T07:55:00;10.07;;;5.45;;
46689;SDS011;32423;45.398;10.874;2023-12-14T07:57:52;90.47;;;31.35;;
46689;SDS011;32423;45.398;10.874;2023-12-14T08:00:44;21.65;;;10.60;;
46689;SDS011;32423;45.398;10.874;2023-12-14T08:03:39;13.63;;;5.07;;
46689;SDS011;32423;45.398;10.874;2023-12-14T08:06:33;14.70;;;5.45;;
46689;SDS011;32423;45.398;10.874;2023-12-14T08:09:28;10.45;;;5.75;;
46689;SDS011;32423;45.398;10.874;2023-12-14T08:12:21;15.27;;;7.28;;
46689;SDS011;32423;45.398;10.874;2023-12-14T08:15:15;11.70;;;5.20;;
46689;SDS011;32423;45.398;10.874;2023-12-14T08:18:07;13.00;;;5.97;;
46689;SDS011;32423;45.398;10.874;2023-12-14T08:20:59;15.20;;;7.70;;
46689;SDS011;32423;45.398;10.874;2023-12-14T08:23:54;13.00;;;6.55;;
46689;SDS011;32423;45.398;10.874;2023-12-14T08:26:48;8.82;;;5.43;;
46689;SDS011;32423;45.398;10.874;2023-12-14T08:29:43;13.97;;;4.57;;
46689;SDS011;32423;45.398;10.874;2023-12-14T08:32:38;17.50;;;4.45;;
46689;SDS011;32423;45.398;10.874;2023-12-14T08:35:33;26.03;;;6.33;;
46689;SDS011;32423;45.398;10.874;2023-12-14T08:38:28;10.85;;;4.22;;
46689;SDS011;32423;45.398;10.874;2023-12-14T08:41:22;9.07;;;6.03;;
46689;SDS011;32423;45.398;10.874;2023-12-14T08:44:14;13.95;;;7.28;;
46689;SDS011;32423;45.398;10.874;2023-12-14T08:47:09;7.68;;;4.25;;
46689;SDS011;32423;45.398;10.874;2023-12-14T08:50:06;12.20;;;6.45;;
46689;SDS011;32423;45.398;10.874;2023-12-14T08:53:01;15.80;;;5.80;;
46689;SDS011;32423;45.398;10.874;2023-12-14T08:55:58;10.10;;;6.30;;
46689;SDS011;32423;45.398;10.874;2023-12-14T08:58:53;10.93;;;4.97;;
46689;SDS011;32423;45.398;10.874;2023-12-14T09:01:45;8.90;;;4.83;;
46689;SDS011;32423;45.398;10.874;2023-12-14T09:04:43;14.43;;;5.05;;
46689;SDS011;32423;45.398;10.874;2023-12-14T09:07:35;19.25;;;7.00;;
46689;SDS011;32423;45.398;10.874;2023-12-14T09:10:29;25.53;;;8.17;;
46689;SDS011;32423;45.398;10.874;2023-12-14T09:13:21;26.13;;;8.02;;
46689;SDS011;32423;45.398;10.874;2023-12-14T09:16:13;11.52;;;6.45;;
46689;SDS011;32423;45.398;10.874;2023-12-14T09:19:01;21.50;;;9.75;;
46689;SDS011;32423;45.398;10.874;2023-12-14T09:21:53;16.15;;;8.95;;
46689;SDS011;32423;45.398;10.874;2023-12-14T09:24:49;17.10;;;9.18;;
46689;SDS011;32423;45.398;10.874;2023-12-14T09:27:41;12.03;;;5.90;;
46689;SDS011;32423;45.398;10.874;2023-12-14T09:30:33;16.33;;;8.48;;
46689;SDS011;32423;45.398;10.874;2023-12-14T09:33:25;15.37;;;8.67;;
46689;SDS011;32423;45.398;10.874;2023-12-14T09:36:20;15.85;;;8.98;;
46689;SDS011;32423;45.398;10.874;2023-12-14T09:39:13;13.50;;;7.80;;
46689;SDS011;32423;45.398;10.874;2023-12-14T09:42:13;14.20;;;8.45;;
46689;SDS011;32423;45.398;10.874;2023-12-14T09:45:10;22.48;;;8.45;;
46689;SDS011;32423;45.398;10.874;2023-12-14T09:48:03;16.08;;;8.70;;
46689;SDS011;32423;45.398;10.874;2023-12-14T09:51:00;10.00;;;6.25;;
46689;SDS011;32423;45.398;10.874;2023-12-14T09:53:55;15.47;;;7.27;;
46689;SDS011;32423;45.398;10.874;2023-12-14T09:56:47;15.38;;;8.05;;
46689;SDS011;32423;45.398;10.874;2023-12-14T09:59:42;14.23;;;8.10;;
46689;SDS011;32423;45.398;10.874;2023-12-14T10:02:44;16.95;;;10.68;;
46689;SDS011;32423;45.398;10.874;2023-12-14T10:05:39;19.67;;;11.27;;
46689;SDS011;32423;45.398;10.874;2023-12-14T10:08:33;12.37;;;7.27;;
46689;SDS011;32423;45.398;10.874;2023-12-14T10:11:28;15.53;;;8.87;;
46689;SDS011;32423;45.398;10.874;2023-12-14T10:14:20;15.55;;;9.15;;
46689;SDS011;32423;45.398;10.874;2023-12-14T10:17:22;14.75;;;7.93;;
46689;SDS011;32423;45.398;10.874;2023-12-14T10:20:21;14.77;;;8.18;;
46689;SDS011;32423;45.398;10.874;2023-12-14T10:23:18;20.77;;;9.63;;
46689;SDS011;32423;45.398;10.874;2023-12-14T10:26:13;11.83;;;7.37;;
46689;SDS011;32423;45.398;10.874;2023-12-14T10:29:08;10.25;;;6.32;;
46689;SDS011;32423;45.398;10.874;2023-12-14T10:32:03;16.33;;;8.13;;
46689;SDS011;32423;45.398;10.874;2023-12-14T10:34:57;23.80;;;11.63;;
46689;SDS011;32423;45.398;10.874;2023-12-14T10:37:49;16.42;;;9.15;;
46689;SDS011;32423;45.398;10.874;2023-12-14T10:40:44;11.52;;;6.70;;
46689;SDS011;32423;45.398;10.874;2023-12-14T10:43:40;19.52;;;9.70;;
46689;SDS011;32423;45.398;10.874;2023-12-14T10:46:33;17.30;;;8.27;;
46689;SDS011;32423;45.398;10.874;2023-12-14T10:49:26;15.85;;;7.28;;
46689;SDS011;32423;45.398;10.874;2023-12-14T10:52:19;13.70;;;7.88;;
46689;SDS011;32423;45.398;10.874;2023-12-14T10:55:15;14.48;;;8.35;;
46689;SDS011;32423;45.398;10.874;2023-12-14T10:58:12;15.18;;;8.43;;
46689;SDS011;32423;45.398;10.874;2023-12-14T11:01:07;12.77;;;8.18;;
46689;SDS011;32423;45.398;10.874;2023-12-14T11:04:05;13.75;;;7.97;;
46689;SDS011;32423;45.398;10.874;2023-12-14T11:07:02;15.75;;;8.63;;
46689;SDS011;32423;45.398;10.874;2023-12-14T11:09:56;29.17;;;8.63;;
46689;SDS011;32423;45.398;10.874;2023-12-14T11:12:57;12.77;;;8.10;;
46689;SDS011;32423;45.398;10.874;2023-12-14T11:15:52;14.45;;;7.97;;
46689;SDS011;32423;45.398;10.874;2023-12-14T11:18:47;11.77;;;6.73;;
46689;SDS011;32423;45.398;10.874;2023-12-14T11:22:17;22.27;;;9.52;;
46689;SDS011;32423;45.398;10.874;2023-12-14T11:25:18;19.67;;;9.73;;
46689;SDS011;32423;45.398;10.874;2023-12-14T11:28:10;27.23;;;7.75;;
46689;SDS011;32423;45.398;10.874;2023-12-14T11:31:05;30.15;;;10.60;;
46689;SDS011;32423;45.398;10.874;2023-12-14T11:34:00;14.48;;;9.10;;
46689;SDS011;32423;45.398;10.874;2023-12-14T11:36:54;20.97;;;7.67;;
46689;SDS011;32423;45.398;10.874;2023-12-14T11:39:49;16.90;;;7.70;;
46689;SDS011;32423;45.398;10.874;2023-12-14T11:42:44;16.77;;;8.27;;
46689;SDS011;32423;45.398;10.874;2023-12-14T11:45:46;19.30;;;11.55;;
46689;SDS011;32423;45.398;10.874;2023-12-14T11:48:40;37.83;;;16.70;;
46689;SDS011;32423;45.398;10.874;2023-12-14T11:51:38;42.50;;;19.77;;
46689;SDS011;32423;45.398;10.874;2023-12-14T11:54:27;42.50;;;14.93;;
46689;SDS011;32423;45.398;10.874;2023-12-14T11:57:22;35.67;;;12.35;;
46689;SDS011;32423;45.398;10.874;2023-12-14T12:00:14;30.88;;;12.93;;
46689;SDS011;32423;45.398;10.874;2023-12-14T12:06:18;19.38;;;11.82;;
46689;SDS011;32423;45.398;10.874;2023-12-14T12:09:31;22.88;;;11.20;;
46689;SDS011;32423;45.398;10.874;2023-12-14T12:12:23;17.40;;;10.32;;
46689;SDS011;32423;45.398;10.874;2023-12-14T12:15:13;16.55;;;10.05;;
46689;SDS011;32423;45.398;10.874;2023-12-14T12:18:08;16.77;;;9.35;;
46689;SDS011;32423;45.398;10.874;2023-12-14T12:21:02;25.05;;;13.45;;
46689;SDS011;32423;45.398;10.874;2023-12-14T12:23:57;18.93;;;11.13;;
46689;SDS011;32423;45.398;10.874;2023-12-14T12:26:52;24.67;;;10.77;;
46689;SDS011;32423;45.398;10.874;2023-12-14T12:29:44;23.50;;;11.70;;
46689;SDS011;32423;45.398;10.874;2023-12-14T12:32:39;21.00;;;12.17;;
46689;SDS011;32423;45.398;10.874;2023-12-14T12:35:34;24.55;;;13.55;;
46689;SDS011;32423;45.398;10.874;2023-12-14T12:38:31;24.20;;;12.82;;
46689;SDS011;32423;45.398;10.874;2023-12-14T12:41:23;27.30;;;16.25;;
46689;SDS011;32423;45.398;10.874;2023-12-14T12:44:18;29.98;;;15.32;;
46689;SDS011;32423;45.398;10.874;2023-12-14T12:47:12;22.63;;;12.70;;
46689;SDS011;32423;45.398;10.874;2023-12-14T12:50:07;18.93;;;11.27;;
46689;SDS011;32423;45.398;10.874;2023-12-14T12:52:59;26.60;;;15.80;;
46689;SDS011;32423;45.398;10.874;2023-12-14T12:55:54;26.75;;;15.82;;
46689;SDS011;32423;45.398;10.874;2023-12-14T12:58:49;28.80;;;15.83;;
46689;SDS011;32423;45.398;10.874;2023-12-14T13:01:43;22.85;;;11.80;;
46689;SDS011;32423;45.398;10.874;2023-12-14T13:04:37;31.25;;;15.07;;
46689;SDS011;32423;45.398;10.874;2023-12-14T13:07:32;30.60;;;15.37;;
46689;SDS011;32423;45.398;10.874;2023-12-14T13:10:31;33.67;;;15.77;;
46689;SDS011;32423;45.398;10.874;2023-12-14T13:13:26;28.80;;;16.27;;
46689;SDS011;32423;45.398;10.874;2023-12-14T13:16:21;31.40;;;17.00;;
46689;SDS011;32423;45.398;10.874;2023-12-14T13:19:15;28.05;;;16.35;;
46689;SDS011;32423;45.398;10.874;2023-12-14T13:22:10;28.73;;;16.40;;
46689;SDS011;32423;45.398;10.874;2023-12-14T13:24:59;29.65;;;16.83;;
46689;SDS011;32423;45.398;10.874;2023-12-14T13:27:52;36.30;;;17.75;;
46689;SDS011;32423;45.398;10.874;2023-12-14T13:30:46;30.80;;;15.77;;
46689;SDS011;32423;45.398;10.874;2023-12-14T13:33:39;31.77;;;16.52;;
46689;SDS011;32423;45.398;10.874;2023-12-14T13:36:33;30.73;;;17.40;;
46689;SDS011;32423;45.398;10.874;2023-12-14T13:39:28;28.38;;;16.80;;
46689;SDS011;32423;45.398;10.874;2023-12-14T13:42:22;30.73;;;17.58;;
46689;SDS011;32423;45.398;10.874;2023-12-14T13:45:17;29.58;;;16.05;;
46689;SDS011;32423;45.398;10.874;2023-12-14T13:48:09;23.17;;;13.88;;
46689;SDS011;32423;45.398;10.874;2023-12-14T13:51:01;29.95;;;16.27;;
46689;SDS011;32423;45.398;10.874;2023-12-14T13:53:53;32.70;;;17.60;;
46689;SDS011;32423;45.398;10.874;2023-12-14T13:56:48;30.67;;;17.30;;
46689;SDS011;32423;45.398;10.874;2023-12-14T13:59:41;34.80;;;18.42;;
46689;SDS011;32423;45.398;10.874;2023-12-14T14:02:36;26.42;;;16.23;;
46689;SDS011;32423;45.398;10.874;2023-12-14T14:05:28;32.45;;;16.85;;
46689;SDS011;32423;45.398;10.874;2023-12-14T14:08:20;28.65;;;15.73;;
46689;SDS011;32423;45.398;10.874;2023-12-14T14:11:12;30.30;;;17.80;;
46689;SDS011;32423;45.398;10.874;2023-12-14T14:14:07;28.30;;;15.18;;
46689;SDS011;32423;45.398;10.874;2023-12-14T14:16:56;23.73;;;13.88;;
46689;SDS011;32423;45.398;10.874;2023-12-14T14:19:49;30.13;;;15.55;;
46689;SDS011;32423;45.398;10.874;2023-12-14T14:22:43;22.10;;;11.70;;
46689;SDS011;32423;45.398;10.874;2023-12-14T14:25:35;26.43;;;14.50;;
46689;SDS011;32423;45.398;10.874;2023-12-14T14:28:29;24.48;;;14.43;;
46689;SDS011;32423;45.398;10.874;2023-12-14T14:31:22;26.92;;;14.55;;
46689;SDS011;32423;45.398;10.874;2023-12-14T14:34:16;19.88;;;11.90;;
46689;SDS011;32423;45.398;10.874;2023-12-14T14:37:11;27.80;;;13.93;;
46689;SDS011;32423;45.398;10.874;2023-12-14T14:40:09;30.17;;;15.02;;
46689;SDS011;32423;45.398;10.874;2023-12-14T14:43:00;26.05;;;14.57;;
46689;SDS011;32423;45.398;10.874;2023-12-14T14:45:53;34.00;;;15.77;;
46689;SDS011;32423;45.398;10.874;2023-12-14T14:48:45;24.90;;;12.50;;
46689;SDS011;32423;45.398;10.874;2023-12-14T14:51:37;34.90;;;14.13;;
46689;SDS011;32423;45.398;10.874;2023-12-14T14:54:31;15.13;;;7.33;;
46689;SDS011;32423;45.398;10.874;2023-12-14T14:57:26;24.52;;;12.98;;
46689;SDS011;32423;45.398;10.874;2023-12-14T15:00:21;29.30;;;15.18;;
46689;SDS011;32423;45.398;10.874;2023-12-14T15:03:16;16.40;;;10.35;;
46689;SDS011;32423;45.398;10.874;2023-12-14T15:06:11;30.27;;;13.02;;
46689;SDS011;32423;45.398;10.874;2023-12-14T15:09:04;19.80;;;12.17;;
46689;SDS011;32423;45.398;10.874;2023-12-14T15:11:59;21.00;;;12.90;;
46689;SDS011;32423;45.398;10.874;2023-12-14T15:14:54;21.17;;;12.97;;
46689;SDS011;32423;45.398;10.874;2023-12-14T15:17:49;21.80;;;12.27;;
46689;SDS011;32423;45.398;10.874;2023-12-14T15:20:41;23.65;;;14.20;;
46689;SDS011;32423;45.398;10.874;2023-12-14T15:23:33;25.50;;;14.27;;
46689;SDS011;32423;45.398;10.874;2023-12-14T15:26:23;28.67;;;14.73;;
46689;SDS011;32423;45.398;10.874;2023-12-14T15:29:17;28.20;;;16.60;;
46689;SDS011;32423;45.398;10.874;2023-12-14T15:32:09;27.45;;;14.50;;
46689;SDS011;32423;45.398;10.874;2023-12-14T15:34:58;30.13;;;15.65;;
46689;SDS011;32423;45.398;10.874;2023-12-14T15:37:48;27.63;;;15.45;;
46689;SDS011;32423;45.398;10.874;2023-12-14T15:40:40;28.90;;;16.38;;
46689;SDS011;32423;45.398;10.874;2023-12-14T15:43:32;39.40;;;17.58;;
46689;SDS011;32423;45.398;10.874;2023-12-14T15:46:27;32.42;;;18.13;;
46689;SDS011;32423;45.398;10.874;2023-12-14T15:49:19;35.85;;;18.30;;
46689;SDS011;32423;45.398;10.874;2023-12-14T15:52:14;34.17;;;19.23;;
46689;SDS011;32423;45.398;10.874;2023-12-14T15:55:09;25.77;;;13.17;;
46689;SDS011;32423;45.398;10.874;2023-12-14T15:58:02;32.15;;;17.35;;
46689;SDS011;32423;45.398;10.874;2023-12-14T16:00:56;35.83;;;18.80;;
46689;SDS011;32423;45.398;10.874;2023-12-14T16:03:51;35.63;;;18.77;;
46689;SDS011;32423;45.398;10.874;2023-12-14T16:06:46;37.05;;;17.95;;
46689;SDS011;32423;45.398;10.874;2023-12-14T16:09:39;34.72;;;18.25;;
46689;SDS011;32423;45.398;10.874;2023-12-14T16:12:34;37.67;;;18.13;;
46689;SDS011;32423;45.398;10.874;2023-12-14T16:15:26;36.97;;;18.98;;
46689;SDS011;32423;45.398;10.874;2023-12-14T16:18:17;35.13;;;18.52;;
46689;SDS011;32423;45.398;10.874;2023-12-14T16:21:06;31.75;;;17.35;;
46689;SDS011;32423;45.398;10.874;2023-12-14T16:23:58;36.20;;;18.13;;
46689;SDS011;32423;45.398;10.874;2023-12-14T16:26:48;36.70;;;18.27;;
46689;SDS011;32423;45.398;10.874;2023-12-14T16:29:43;25.43;;;14.47;;
46689;SDS011;32423;45.398;10.874;2023-12-14T16:32:34;37.65;;;18.13;;
46689;SDS011;32423;45.398;10.874;2023-12-14T16:35:24;40.35;;;17.10;;
46689;SDS011;32423;45.398;10.874;2023-12-14T16:38:19;29.10;;;14.63;;
46689;SDS011;32423;45.398;10.874;2023-12-14T16:41:15;35.08;;;16.88;;
46689;SDS011;32423;45.398;10.874;2023-12-14T16:44:11;33.90;;;17.38;;
46689;SDS011;32423;45.398;10.874;2023-12-14T16:47:04;30.88;;;17.33;;
46689;SDS011;32423;45.398;10.874;2023-12-14T16:50:01;29.00;;;16.25;;
46689;SDS011;32423;45.398;10.874;2023-12-14T16:52:56;28.70;;;15.05;;
46689;SDS011;32423;45.398;10.874;2023-12-14T16:55:48;39.03;;;15.70;;
46689;SDS011;32423;45.398;10.874;2023-12-14T16:58:47;29.45;;;13.98;;
46689;SDS011;32423;45.398;10.874;2023-12-14T17:01:39;36.05;;;18.10;;
46689;SDS011;32423;45.398;10.874;2023-12-14T17:04:34;31.73;;;16.33;;
46689;SDS011;32423;45.398;10.874;2023-12-14T17:07:27;30.85;;;17.27;;